Kirsten H — WY7979 — position and weather

sailwx.info

Track history (hours):
 
Tides and Currents Weather Stations Pressure Air Temp Water Temp Dewpoint Dewpoint Depression Visibility Wind Speed Wind Dir Waves Ship Positions

Kirsten H

Owner: BOYER TOWING, KETCHIKAN, AK. More information available from US FCC via Universal Licensing System and Coast Guard Vessel Documentation Center.

Last reported at 2017-Mar-29 22:23 UTC. Time now 2017-Mar-30 04:50 UTC.
Position N 47°32' W 122°20'.

Length 23 m; draft 3.7 m.

Type: Tug. MMSI: 366623050.

Date/timePositionNaut miles runAvg speedWind from/ knotsBaromVisibWave heightAir tempDewpointWater temp
2017-Mar-29 22:23N 47°32' W 122°20'  
2017-Mar-21 23:24N 47°32' W 122°20'5 5.7
2017-Mar-21 22:33N 47°35' W 122°25'8 8.2
2017-Mar-21 21:33N 47°33' W 122°37'2 2.4
2017-Mar-21 20:33N 47°32' W 122°40'4 4.2
2017-Mar-21 19:33N 47°35' W 122°35'5 4.9
2017-Mar-21 18:33N 47°35' W 122°28'4 4.3
2017-Mar-21 17:33N 47°34' W 122°21'2 2.4
2017-Mar-21 16:33N 47°32' W 122°20'  
Track history (hours):
 
Tides and Currents Weather Stations Pressure Air Temp Water Temp Dewpoint Dewpoint Depression Visibility Wind Speed Wind Dir Waves Ship Positions

Kirsten H

Owner: BOYER TOWING, KETCHIKAN, AK. More information available from US FCC via Universal Licensing System and Coast Guard Vessel Documentation Center.

Last reported at 2017-Mar-29 22:23 UTC. Time now 2017-Mar-30 04:50 UTC.
Position N 47°32' W 122°20'.

Length 23 m; draft 3.7 m.

Type: Tug. MMSI: 366623050.

Date/timePositionNaut miles runAvg speedWind from/ knotsBaromVisibWave heightAir tempDewpointWater temp
2017-Mar-29 22:23N 47°32' W 122°20'  
2017-Mar-21 23:24N 47°32' W 122°20'5 5.7
2017-Mar-21 22:33N 47°35' W 122°25'8 8.2
2017-Mar-21 21:33N 47°33' W 122°37'2 2.4
2017-Mar-21 20:33N 47°32' W 122°40'4 4.2
2017-Mar-21 19:33N 47°35' W 122°35'5 4.9
2017-Mar-21 18:33N 47°35' W 122°28'4 4.3
2017-Mar-21 17:33N 47°34' W 122°21'2 2.4
2017-Mar-21 16:33N 47°32' W 122°20'  

Dump ship's entire track history